Main page
METAR-TAF:

METAR-TAF

Airports :

Songea Airport

Songea, Tanzania

latitude: 10-41S, longitude: 035-35E, elevation: 1067 m

Current weather observation

The report was made 2 hours and 38 minutes ago, at 19:00 UTC
Wind 3 kt from the East/Northeast
Temperature 22°C
Humidity 60%
Pressure 1019 hPa
Visibility 10 km or more
Clear sky

METAR: HTSO 211900Z 06003KT 9999 SKC 22/14 Q1019

Time: 00:38 (21:38 UTC)


TAF: missing

Weather observations and forecasts of more than 4000 airports (METAR and TAF reports).

The available stations are represented by yellow and red dots on the map.

Hover mouse over dot to see the name of the station.

Then click to see weather observations and forecasts.

To change the map : click on the green buttons with a black cross to zoom in, on the green button with a dash to zoom out, or on the green arrows for adjacent maps.


METAR-TAF: